sensor_id;sensor_type;location;lat;lon;timestamp;P1;durP1;ratioP1;P2;durP2;ratioP2
66587;SDS011;53446;50.076;8.198;2022-10-31T00:00:20;9.20;;;3.80;;
66587;SDS011;53446;50.076;8.198;2022-10-31T00:02:20;9.20;;;4.32;;
66587;SDS011;53446;50.076;8.198;2022-10-31T00:04:20;10.47;;;3.60;;
66587;SDS011;53446;50.076;8.198;2022-10-31T00:06:21;8.30;;;3.60;;
66587;SDS011;53446;50.076;8.198;2022-10-31T00:08:22;12.88;;;3.95;;
66587;SDS011;53446;50.076;8.198;2022-10-31T00:10:22;12.47;;;3.90;;
66587;SDS011;53446;50.076;8.198;2022-10-31T00:12:23;11.57;;;4.13;;
66587;SDS011;53446;50.076;8.198;2022-10-31T00:14:23;14.47;;;4.40;;
66587;SDS011;53446;50.076;8.198;2022-10-31T00:16:24;10.97;;;4.57;;
66587;SDS011;53446;50.076;8.198;2022-10-31T00:18:25;13.32;;;3.95;;
66587;SDS011;53446;50.076;8.198;2022-10-31T00:20:25;8.83;;;3.50;;
66587;SDS011;53446;50.076;8.198;2022-10-31T00:22:25;9.23;;;3.33;;
66587;SDS011;53446;50.076;8.198;2022-10-31T00:24:26;9.93;;;3.42;;
66587;SDS011;53446;50.076;8.198;2022-10-31T00:26:26;12.00;;;4.05;;
66587;SDS011;53446;50.076;8.198;2022-10-31T00:28:27;10.90;;;3.60;;
66587;SDS011;53446;50.076;8.198;2022-10-31T00:30:30;11.43;;;3.45;;
66587;SDS011;53446;50.076;8.198;2022-10-31T00:32:30;8.00;;;3.40;;
66587;SDS011;53446;50.076;8.198;2022-10-31T00:34:31;8.63;;;3.17;;
66587;SDS011;53446;50.076;8.198;2022-10-31T00:36:31;12.57;;;3.30;;
66587;SDS011;53446;50.076;8.198;2022-10-31T00:38:31;10.93;;;3.57;;
66587;SDS011;53446;50.076;8.198;2022-10-31T00:40:32;13.87;;;3.17;;
66587;SDS011;53446;50.076;8.198;2022-10-31T00:42:32;11.32;;;3.65;;
66587;SDS011;53446;50.076;8.198;2022-10-31T00:44:32;7.80;;;3.15;;
66587;SDS011;53446;50.076;8.198;2022-10-31T00:46:33;9.87;;;3.40;;
66587;SDS011;53446;50.076;8.198;2022-10-31T00:48:33;9.37;;;3.60;;
66587;SDS011;53446;50.076;8.198;2022-10-31T00:50:33;9.30;;;3.83;;
66587;SDS011;53446;50.076;8.198;2022-10-31T00:52:34;6.93;;;3.10;;
66587;SDS011;53446;50.076;8.198;2022-10-31T00:54:34;10.03;;;3.50;;
66587;SDS011;53446;50.076;8.198;2022-10-31T00:56:34;7.30;;;3.50;;
66587;SDS011;53446;50.076;8.198;2022-10-31T00:58:35;10.77;;;3.43;;
66587;SDS011;53446;50.076;8.198;2022-10-31T01:00:35;12.48;;;3.78;;
66587;SDS011;53446;50.076;8.198;2022-10-31T01:02:35;9.95;;;4.97;;
66587;SDS011;53446;50.076;8.198;2022-10-31T01:04:35;11.87;;;4.07;;
66587;SDS011;53446;50.076;8.198;2022-10-31T01:06:36;11.63;;;3.20;;
66587;SDS011;53446;50.076;8.198;2022-10-31T01:08:36;9.47;;;3.30;;
66587;SDS011;53446;50.076;8.198;2022-10-31T01:10:37;9.05;;;3.30;;
66587;SDS011;53446;50.076;8.198;2022-10-31T01:12:41;7.93;;;3.60;;
66587;SDS011;53446;50.076;8.198;2022-10-31T01:14:44;11.50;;;4.38;;
66587;SDS011;53446;50.076;8.198;2022-10-31T01:16:44;8.70;;;3.75;;
66587;SDS011;53446;50.076;8.198;2022-10-31T01:18:45;13.10;;;4.13;;
66587;SDS011;53446;50.076;8.198;2022-10-31T01:20:46;8.98;;;3.67;;
66587;SDS011;53446;50.076;8.198;2022-10-31T01:22:46;11.07;;;4.17;;
66587;SDS011;53446;50.076;8.198;2022-10-31T01:24:46;13.03;;;3.90;;
66587;SDS011;53446;50.076;8.198;2022-10-31T01:26:47;11.40;;;3.67;;
66587;SDS011;53446;50.076;8.198;2022-10-31T01:28:48;11.00;;;4.40;;
66587;SDS011;53446;50.076;8.198;2022-10-31T01:30:49;8.30;;;3.63;;
66587;SDS011;53446;50.076;8.198;2022-10-31T01:32:49;11.38;;;3.92;;
66587;SDS011;53446;50.076;8.198;2022-10-31T01:34:49;8.27;;;3.72;;
66587;SDS011;53446;50.076;8.198;2022-10-31T01:36:50;8.97;;;3.30;;
66587;SDS011;53446;50.076;8.198;2022-10-31T01:38:51;10.13;;;3.70;;
66587;SDS011;53446;50.076;8.198;2022-10-31T01:40:53;9.70;;;3.30;;
66587;SDS011;53446;50.076;8.198;2022-10-31T01:42:53;9.97;;;3.40;;
66587;SDS011;53446;50.076;8.198;2022-10-31T01:44:55;6.28;;;2.92;;
66587;SDS011;53446;50.076;8.198;2022-10-31T01:47:15;7.68;;;3.15;;
66587;SDS011;53446;50.076;8.198;2022-10-31T01:49:24;10.15;;;2.92;;
66587;SDS011;53446;50.076;8.198;2022-10-31T01:51:33;10.77;;;4.07;;
66587;SDS011;53446;50.076;8.198;2022-10-31T01:53:35;16.40;;;4.03;;
66587;SDS011;53446;50.076;8.198;2022-10-31T01:55:38;8.40;;;3.40;;
66587;SDS011;53446;50.076;8.198;2022-10-31T01:57:40;14.20;;;4.15;;
66587;SDS011;53446;50.076;8.198;2022-10-31T01:59:42;10.63;;;3.67;;
66587;SDS011;53446;50.076;8.198;2022-10-31T02:01:46;8.38;;;3.50;;
66587;SDS011;53446;50.076;8.198;2022-10-31T02:03:47;10.85;;;3.88;;
66587;SDS011;53446;50.076;8.198;2022-10-31T02:05:48;7.83;;;3.67;;
66587;SDS011;53446;50.076;8.198;2022-10-31T02:07:54;12.25;;;4.13;;
66587;SDS011;53446;50.076;8.198;2022-10-31T02:09:57;9.80;;;3.70;;
66587;SDS011;53446;50.076;8.198;2022-10-31T02:11:58;9.30;;;4.13;;
66587;SDS011;53446;50.076;8.198;2022-10-31T02:13:59;11.43;;;3.78;;
66587;SDS011;53446;50.076;8.198;2022-10-31T02:16:00;10.50;;;3.70;;
66587;SDS011;53446;50.076;8.198;2022-10-31T02:18:00;11.85;;;4.25;;
66587;SDS011;53446;50.076;8.198;2022-10-31T02:20:05;10.97;;;3.73;;
66587;SDS011;53446;50.076;8.198;2022-10-31T02:22:16;9.65;;;3.75;;
66587;SDS011;53446;50.076;8.198;2022-10-31T02:24:29;8.30;;;3.27;;
66587;SDS011;53446;50.076;8.198;2022-10-31T02:32:10;17.10;;;4.60;;
66587;SDS011;53446;50.076;8.198;2022-10-31T02:37:11;8.50;;;3.90;;
66587;SDS011;53446;50.076;8.198;2022-10-31T02:39:24;11.77;;;4.20;;
66587;SDS011;53446;50.076;8.198;2022-10-31T02:41:32;9.68;;;3.50;;
66587;SDS011;53446;50.076;8.198;2022-10-31T02:46:20;11.13;;;3.67;;
66587;SDS011;53446;50.076;8.198;2022-10-31T02:48:28;10.93;;;3.73;;
66587;SDS011;53446;50.076;8.198;2022-10-31T02:50:31;8.63;;;3.85;;
66587;SDS011;53446;50.076;8.198;2022-10-31T02:52:33;16.17;;;4.72;;
66587;SDS011;53446;50.076;8.198;2022-10-31T02:54:34;12.32;;;4.30;;
66587;SDS011;53446;50.076;8.198;2022-10-31T02:56:35;9.67;;;4.17;;
66587;SDS011;53446;50.076;8.198;2022-10-31T02:58:36;9.90;;;3.60;;
66587;SDS011;53446;50.076;8.198;2022-10-31T03:03:25;7.80;;;3.88;;
66587;SDS011;53446;50.076;8.198;2022-10-31T03:05:40;8.83;;;3.50;;
66587;SDS011;53446;50.076;8.198;2022-10-31T03:08:13;11.55;;;4.50;;
66587;SDS011;53446;50.076;8.198;2022-10-31T03:10:52;10.13;;;3.67;;
66587;SDS011;53446;50.076;8.198;2022-10-31T03:15:34;8.27;;;3.50;;
66587;SDS011;53446;50.076;8.198;2022-10-31T03:20:06;10.80;;;3.95;;
66587;SDS011;53446;50.076;8.198;2022-10-31T03:22:11;9.80;;;4.15;;
66587;SDS011;53446;50.076;8.198;2022-10-31T03:24:16;9.68;;;3.70;;
66587;SDS011;53446;50.076;8.198;2022-10-31T03:26:16;11.57;;;4.80;;
66587;SDS011;53446;50.076;8.198;2022-10-31T03:28:18;9.07;;;3.40;;
66587;SDS011;53446;50.076;8.198;2022-10-31T03:30:23;10.20;;;3.97;;
66587;SDS011;53446;50.076;8.198;2022-10-31T03:34:31;9.70;;;3.38;;
66587;SDS011;53446;50.076;8.198;2022-10-31T03:36:33;9.00;;;3.00;;
66587;SDS011;53446;50.076;8.198;2022-10-31T03:38:34;12.55;;;3.75;;
66587;SDS011;53446;50.076;8.198;2022-10-31T03:40:35;10.68;;;4.70;;
66587;SDS011;53446;50.076;8.198;2022-10-31T03:42:39;11.73;;;3.63;;
66587;SDS011;53446;50.076;8.198;2022-10-31T03:44:42;11.87;;;4.33;;
66587;SDS011;53446;50.076;8.198;2022-10-31T03:46:46;12.85;;;4.18;;
66587;SDS011;53446;50.076;8.198;2022-10-31T03:48:46;9.63;;;3.67;;
66587;SDS011;53446;50.076;8.198;2022-10-31T03:53:06;9.52;;;3.55;;
66587;SDS011;53446;50.076;8.198;2022-10-31T03:55:13;8.60;;;3.33;;
66587;SDS011;53446;50.076;8.198;2022-10-31T03:57:22;8.82;;;3.30;;
66587;SDS011;53446;50.076;8.198;2022-10-31T03:59:28;15.20;;;4.28;;
66587;SDS011;53446;50.076;8.198;2022-10-31T04:01:41;10.93;;;4.57;;
66587;SDS011;53446;50.076;8.198;2022-10-31T04:03:44;9.38;;;3.28;;
66587;SDS011;53446;50.076;8.198;2022-10-31T04:05:46;9.53;;;3.43;;
66587;SDS011;53446;50.076;8.198;2022-10-31T04:07:47;12.02;;;4.03;;
66587;SDS011;53446;50.076;8.198;2022-10-31T04:09:50;10.35;;;3.33;;
66587;SDS011;53446;50.076;8.198;2022-10-31T04:11:52;8.13;;;2.90;;
66587;SDS011;53446;50.076;8.198;2022-10-31T04:13:54;8.43;;;3.35;;
66587;SDS011;53446;50.076;8.198;2022-10-31T04:15:56;9.38;;;3.30;;
66587;SDS011;53446;50.076;8.198;2022-10-31T04:17:57;11.98;;;3.75;;
66587;SDS011;53446;50.076;8.198;2022-10-31T04:19:59;9.10;;;3.80;;
66587;SDS011;53446;50.076;8.198;2022-10-31T04:22:00;8.73;;;3.10;;
66587;SDS011;53446;50.076;8.198;2022-10-31T04:24:01;11.77;;;3.80;;
66587;SDS011;53446;50.076;8.198;2022-10-31T04:26:01;14.13;;;4.07;;
66587;SDS011;53446;50.076;8.198;2022-10-31T04:28:01;7.50;;;3.47;;
66587;SDS011;53446;50.076;8.198;2022-10-31T04:30:02;11.13;;;3.60;;
66587;SDS011;53446;50.076;8.198;2022-10-31T04:32:02;11.35;;;3.95;;
66587;SDS011;53446;50.076;8.198;2022-10-31T04:34:03;11.23;;;3.97;;
66587;SDS011;53446;50.076;8.198;2022-10-31T04:36:03;10.90;;;3.67;;
66587;SDS011;53446;50.076;8.198;2022-10-31T04:38:04;11.25;;;3.63;;
66587;SDS011;53446;50.076;8.198;2022-10-31T04:40:05;8.73;;;3.43;;
66587;SDS011;53446;50.076;8.198;2022-10-31T04:42:06;11.63;;;3.65;;
66587;SDS011;53446;50.076;8.198;2022-10-31T04:44:06;10.85;;;4.30;;
66587;SDS011;53446;50.076;8.198;2022-10-31T04:46:06;9.10;;;3.27;;
66587;SDS011;53446;50.076;8.198;2022-10-31T04:48:06;9.93;;;3.60;;
66587;SDS011;53446;50.076;8.198;2022-10-31T04:50:07;11.23;;;3.97;;
66587;SDS011;53446;50.076;8.198;2022-10-31T04:52:07;12.10;;;4.33;;
66587;SDS011;53446;50.076;8.198;2022-10-31T04:54:08;9.85;;;4.20;;
66587;SDS011;53446;50.076;8.198;2022-10-31T04:56:08;10.33;;;4.03;;
66587;SDS011;53446;50.076;8.198;2022-10-31T04:58:08;10.47;;;3.53;;
66587;SDS011;53446;50.076;8.198;2022-10-31T05:00:09;11.60;;;3.67;;
66587;SDS011;53446;50.076;8.198;2022-10-31T05:02:11;11.40;;;3.95;;
66587;SDS011;53446;50.076;8.198;2022-10-31T05:04:11;11.83;;;4.60;;
66587;SDS011;53446;50.076;8.198;2022-10-31T05:06:11;13.60;;;4.67;;
66587;SDS011;53446;50.076;8.198;2022-10-31T05:08:12;16.37;;;4.47;;
66587;SDS011;53446;50.076;8.198;2022-10-31T05:10:13;15.43;;;7.33;;
66587;SDS011;53446;50.076;8.198;2022-10-31T05:12:16;14.30;;;6.63;;
66587;SDS011;53446;50.076;8.198;2022-10-31T05:14:16;13.00;;;5.83;;
66587;SDS011;53446;50.076;8.198;2022-10-31T05:16:16;10.10;;;5.03;;
66587;SDS011;53446;50.076;8.198;2022-10-31T05:18:16;12.93;;;4.80;;
66587;SDS011;53446;50.076;8.198;2022-10-31T05:20:17;12.13;;;5.27;;
66587;SDS011;53446;50.076;8.198;2022-10-31T05:22:19;14.38;;;6.07;;
66587;SDS011;53446;50.076;8.198;2022-10-31T05:24:19;14.97;;;6.20;;
66587;SDS011;53446;50.076;8.198;2022-10-31T05:26:21;19.10;;;5.65;;
66587;SDS011;53446;50.076;8.198;2022-10-31T05:28:21;22.93;;;6.33;;
66587;SDS011;53446;50.076;8.198;2022-10-31T05:30:23;9.60;;;4.73;;
66587;SDS011;53446;50.076;8.198;2022-10-31T05:32:27;12.32;;;4.97;;
66587;SDS011;53446;50.076;8.198;2022-10-31T05:34:27;12.40;;;5.47;;
66587;SDS011;53446;50.076;8.198;2022-10-31T05:36:28;9.27;;;4.10;;
66587;SDS011;53446;50.076;8.198;2022-10-31T05:38:28;9.00;;;3.92;;
66587;SDS011;53446;50.076;8.198;2022-10-31T05:40:28;14.10;;;4.70;;
66587;SDS011;53446;50.076;8.198;2022-10-31T05:42:29;11.53;;;4.90;;
66587;SDS011;53446;50.076;8.198;2022-10-31T05:44:29;9.80;;;4.00;;
66587;SDS011;53446;50.076;8.198;2022-10-31T05:46:29;12.33;;;4.60;;
66587;SDS011;53446;50.076;8.198;2022-10-31T05:48:29;13.17;;;4.67;;
66587;SDS011;53446;50.076;8.198;2022-10-31T05:50:30;12.73;;;4.27;;
66587;SDS011;53446;50.076;8.198;2022-10-31T05:52:31;11.77;;;4.80;;
66587;SDS011;53446;50.076;8.198;2022-10-31T05:54:32;10.90;;;3.67;;
66587;SDS011;53446;50.076;8.198;2022-10-31T05:56:32;9.55;;;4.10;;
66587;SDS011;53446;50.076;8.198;2022-10-31T05:58:32;11.90;;;4.30;;
66587;SDS011;53446;50.076;8.198;2022-10-31T06:00:32;11.77;;;4.97;;
66587;SDS011;53446;50.076;8.198;2022-10-31T06:02:34;12.98;;;4.07;;
66587;SDS011;53446;50.076;8.198;2022-10-31T06:04:35;12.07;;;4.83;;
66587;SDS011;53446;50.076;8.198;2022-10-31T06:06:35;10.87;;;4.57;;
66587;SDS011;53446;50.076;8.198;2022-10-31T06:08:36;13.70;;;5.17;;
66587;SDS011;53446;50.076;8.198;2022-10-31T06:10:36;14.13;;;5.20;;
66587;SDS011;53446;50.076;8.198;2022-10-31T06:12:36;11.55;;;4.38;;
66587;SDS011;53446;50.076;8.198;2022-10-31T06:14:37;15.70;;;6.73;;
66587;SDS011;53446;50.076;8.198;2022-10-31T06:16:37;19.53;;;8.73;;
66587;SDS011;53446;50.076;8.198;2022-10-31T06:18:37;30.57;;;14.50;;
66587;SDS011;53446;50.076;8.198;2022-10-31T06:20:38;15.87;;;6.60;;
66587;SDS011;53446;50.076;8.198;2022-10-31T06:22:38;13.23;;;5.83;;
66587;SDS011;53446;50.076;8.198;2022-10-31T06:24:38;14.60;;;5.03;;
66587;SDS011;53446;50.076;8.198;2022-10-31T06:26:39;14.20;;;5.43;;
66587;SDS011;53446;50.076;8.198;2022-10-31T06:28:39;13.17;;;4.70;;
66587;SDS011;53446;50.076;8.198;2022-10-31T06:30:39;15.23;;;5.37;;
66587;SDS011;53446;50.076;8.198;2022-10-31T06:32:40;14.73;;;4.80;;
66587;SDS011;53446;50.076;8.198;2022-10-31T06:34:41;11.60;;;4.43;;
66587;SDS011;53446;50.076;8.198;2022-10-31T06:36:42;14.40;;;5.33;;
66587;SDS011;53446;50.076;8.198;2022-10-31T06:38:42;10.30;;;3.90;;
66587;SDS011;53446;50.076;8.198;2022-10-31T06:40:42;10.63;;;3.78;;
66587;SDS011;53446;50.076;8.198;2022-10-31T06:42:43;12.53;;;4.83;;
66587;SDS011;53446;50.076;8.198;2022-10-31T06:44:43;13.63;;;4.83;;
66587;SDS011;53446;50.076;8.198;2022-10-31T06:46:45;10.77;;;4.10;;
66587;SDS011;53446;50.076;8.198;2022-10-31T06:48:46;15.90;;;6.05;;
66587;SDS011;53446;50.076;8.198;2022-10-31T06:50:47;12.67;;;5.10;;
66587;SDS011;53446;50.076;8.198;2022-10-31T06:53:05;10.63;;;4.80;;
66587;SDS011;53446;50.076;8.198;2022-10-31T06:55:06;10.65;;;4.43;;
66587;SDS011;53446;50.076;8.198;2022-10-31T06:57:06;11.13;;;4.63;;
66587;SDS011;53446;50.076;8.198;2022-10-31T06:59:06;15.00;;;5.20;;
66587;SDS011;53446;50.076;8.198;2022-10-31T07:01:07;17.20;;;5.23;;
66587;SDS011;53446;50.076;8.198;2022-10-31T07:03:11;13.13;;;5.10;;
66587;SDS011;53446;50.076;8.198;2022-10-31T07:05:12;12.88;;;4.68;;
66587;SDS011;53446;50.076;8.198;2022-10-31T07:07:12;10.00;;;3.97;;
66587;SDS011;53446;50.076;8.198;2022-10-31T07:09:13;11.73;;;4.90;;
66587;SDS011;53446;50.076;8.198;2022-10-31T07:11:13;15.98;;;5.13;;
66587;SDS011;53446;50.076;8.198;2022-10-31T07:13:14;16.75;;;5.15;;
66587;SDS011;53446;50.076;8.198;2022-10-31T07:15:14;12.33;;;4.93;;
66587;SDS011;53446;50.076;8.198;2022-10-31T07:17:14;12.97;;;5.80;;
66587;SDS011;53446;50.076;8.198;2022-10-31T07:19:15;10.77;;;4.90;;
66587;SDS011;53446;50.076;8.198;2022-10-31T07:21:16;15.52;;;6.00;;
66587;SDS011;53446;50.076;8.198;2022-10-31T07:23:16;10.80;;;5.00;;
66587;SDS011;53446;50.076;8.198;2022-10-31T07:25:17;18.30;;;6.63;;
66587;SDS011;53446;50.076;8.198;2022-10-31T07:27:17;17.48;;;6.72;;
66587;SDS011;53446;50.076;8.198;2022-10-31T07:29:18;15.40;;;6.77;;
66587;SDS011;53446;50.076;8.198;2022-10-31T07:31:18;13.33;;;5.20;;
66587;SDS011;53446;50.076;8.198;2022-10-31T07:33:18;17.13;;;5.50;;
66587;SDS011;53446;50.076;8.198;2022-10-31T07:35:20;13.70;;;5.17;;
66587;SDS011;53446;50.076;8.198;2022-10-31T07:37:26;9.73;;;4.20;;
66587;SDS011;53446;50.076;8.198;2022-10-31T07:39:27;9.02;;;4.15;;
66587;SDS011;53446;50.076;8.198;2022-10-31T07:41:27;10.17;;;4.23;;
66587;SDS011;53446;50.076;8.198;2022-10-31T07:43:27;12.60;;;5.23;;
66587;SDS011;53446;50.076;8.198;2022-10-31T07:45:28;14.03;;;4.77;;
66587;SDS011;53446;50.076;8.198;2022-10-31T07:47:28;12.93;;;5.33;;
66587;SDS011;53446;50.076;8.198;2022-10-31T07:49:28;14.57;;;4.87;;
66587;SDS011;53446;50.076;8.198;2022-10-31T07:51:29;12.63;;;4.60;;
66587;SDS011;53446;50.076;8.198;2022-10-31T07:53:29;12.73;;;4.57;;
66587;SDS011;53446;50.076;8.198;2022-10-31T07:55:29;15.60;;;5.50;;
66587;SDS011;53446;50.076;8.198;2022-10-31T07:57:30;16.47;;;4.93;;
66587;SDS011;53446;50.076;8.198;2022-10-31T07:59:31;13.60;;;5.38;;
66587;SDS011;53446;50.076;8.198;2022-10-31T08:01:31;12.87;;;4.43;;
66587;SDS011;53446;50.076;8.198;2022-10-31T08:03:31;15.57;;;5.17;;
66587;SDS011;53446;50.076;8.198;2022-10-31T08:05:32;15.33;;;4.60;;
66587;SDS011;53446;50.076;8.198;2022-10-31T08:07:35;11.68;;;4.93;;
66587;SDS011;53446;50.076;8.198;2022-10-31T08:09:36;17.05;;;5.38;;
66587;SDS011;53446;50.076;8.198;2022-10-31T08:11:36;15.65;;;5.57;;
66587;SDS011;53446;50.076;8.198;2022-10-31T08:13:37;13.07;;;5.33;;
66587;SDS011;53446;50.076;8.198;2022-10-31T08:15:37;15.13;;;5.10;;
66587;SDS011;53446;50.076;8.198;2022-10-31T08:17:39;15.13;;;5.28;;
66587;SDS011;53446;50.076;8.198;2022-10-31T08:19:40;16.10;;;5.70;;
66587;SDS011;53446;50.076;8.198;2022-10-31T08:21:40;17.37;;;6.20;;
66587;SDS011;53446;50.076;8.198;2022-10-31T08:23:40;13.63;;;5.33;;
66587;SDS011;53446;50.076;8.198;2022-10-31T08:25:40;13.30;;;5.57;;
66587;SDS011;53446;50.076;8.198;2022-10-31T08:27:42;16.65;;;5.65;;
66587;SDS011;53446;50.076;8.198;2022-10-31T08:29:42;14.10;;;5.37;;
66587;SDS011;53446;50.076;8.198;2022-10-31T08:31:42;17.77;;;6.00;;
66587;SDS011;53446;50.076;8.198;2022-10-31T08:33:43;14.40;;;5.87;;
66587;SDS011;53446;50.076;8.198;2022-10-31T08:35:43;15.07;;;5.73;;
66587;SDS011;53446;50.076;8.198;2022-10-31T08:37:44;13.55;;;6.15;;
66587;SDS011;53446;50.076;8.198;2022-10-31T08:39:44;17.20;;;6.40;;
66587;SDS011;53446;50.076;8.198;2022-10-31T08:41:44;14.87;;;6.10;;
66587;SDS011;53446;50.076;8.198;2022-10-31T08:43:45;13.23;;;5.53;;
66587;SDS011;53446;50.076;8.198;2022-10-31T08:45:48;13.25;;;6.00;;
66587;SDS011;53446;50.076;8.198;2022-10-31T08:47:49;17.75;;;6.65;;
66587;SDS011;53446;50.076;8.198;2022-10-31T08:49:49;13.00;;;5.30;;
66587;SDS011;53446;50.076;8.198;2022-10-31T08:51:49;17.27;;;6.30;;
66587;SDS011;53446;50.076;8.198;2022-10-31T08:53:50;19.73;;;5.90;;
66587;SDS011;53446;50.076;8.198;2022-10-31T08:55:50;13.27;;;5.67;;
66587;SDS011;53446;50.076;8.198;2022-10-31T08:57:54;17.53;;;5.30;;
66587;SDS011;53446;50.076;8.198;2022-10-31T08:59:56;16.40;;;6.20;;
66587;SDS011;53446;50.076;8.198;2022-10-31T09:01:56;14.00;;;5.67;;
66587;SDS011;53446;50.076;8.198;2022-10-31T09:03:57;15.03;;;6.23;;
66587;SDS011;53446;50.076;8.198;2022-10-31T09:05:58;16.90;;;6.27;;
66587;SDS011;53446;50.076;8.198;2022-10-31T09:08:00;14.43;;;6.07;;
66587;SDS011;53446;50.076;8.198;2022-10-31T09:10:01;16.13;;;6.40;;
66587;SDS011;53446;50.076;8.198;2022-10-31T09:12:01;16.93;;;5.87;;
66587;SDS011;53446;50.076;8.198;2022-10-31T09:14:02;15.57;;;5.50;;
66587;SDS011;53446;50.076;8.198;2022-10-31T09:16:02;13.30;;;6.00;;
66587;SDS011;53446;50.076;8.198;2022-10-31T09:18:03;18.63;;;5.95;;
66587;SDS011;53446;50.076;8.198;2022-10-31T09:20:03;14.63;;;6.13;;
66587;SDS011;53446;50.076;8.198;2022-10-31T09:22:04;15.37;;;6.30;;
66587;SDS011;53446;50.076;8.198;2022-10-31T09:24:04;12.07;;;6.03;;
66587;SDS011;53446;50.076;8.198;2022-10-31T09:26:05;15.23;;;6.40;;
66587;SDS011;53446;50.076;8.198;2022-10-31T09:28:07;13.07;;;5.63;;
66587;SDS011;53446;50.076;8.198;2022-10-31T09:30:09;16.75;;;6.18;;
66587;SDS011;53446;50.076;8.198;2022-10-31T09:32:09;13.25;;;6.05;;
66587;SDS011;53446;50.076;8.198;2022-10-31T09:34:10;16.50;;;6.30;;
66587;SDS011;53446;50.076;8.198;2022-10-31T09:36:10;17.23;;;6.47;;
66587;SDS011;53446;50.076;8.198;2022-10-31T09:40:15;14.63;;;6.28;;
66587;SDS011;53446;50.076;8.198;2022-10-31T09:50:58;9.93;;;5.53;;
66587;SDS011;53446;50.076;8.198;2022-10-31T09:53:02;15.02;;;6.15;;
66587;SDS011;53446;50.076;8.198;2022-10-31T09:55:18;16.48;;;6.20;;
66587;SDS011;53446;50.076;8.198;2022-10-31T09:57:25;15.98;;;6.47;;
66587;SDS011;53446;50.076;8.198;2022-10-31T09:59:29;14.30;;;6.40;;
66587;SDS011;53446;50.076;8.198;2022-10-31T10:01:51;14.67;;;7.23;;
66587;SDS011;53446;50.076;8.198;2022-10-31T10:03:57;14.20;;;6.68;;
66587;SDS011;53446;50.076;8.198;2022-10-31T10:08:17;12.35;;;6.32;;
66587;SDS011;53446;50.076;8.198;2022-10-31T10:19:53;17.30;;;7.00;;
66587;SDS011;53446;50.076;8.198;2022-10-31T10:22:10;14.90;;;7.82;;
66587;SDS011;53446;50.076;8.198;2022-10-31T10:24:39;16.87;;;6.97;;
66587;SDS011;53446;50.076;8.198;2022-10-31T10:29:27;17.33;;;6.63;;
66587;SDS011;53446;50.076;8.198;2022-10-31T10:31:37;17.77;;;7.10;;
66587;SDS011;53446;50.076;8.198;2022-10-31T10:33:40;17.83;;;6.78;;
66587;SDS011;53446;50.076;8.198;2022-10-31T10:35:47;15.23;;;7.13;;
66587;SDS011;53446;50.076;8.198;2022-10-31T10:37:52;12.63;;;6.88;;
66587;SDS011;53446;50.076;8.198;2022-10-31T10:40:01;14.98;;;7.05;;
66587;SDS011;53446;50.076;8.198;2022-10-31T10:42:11;16.17;;;7.03;;
66587;SDS011;53446;50.076;8.198;2022-10-31T10:44:31;19.65;;;7.47;;
66587;SDS011;53446;50.076;8.198;2022-10-31T10:46:51;17.93;;;7.33;;
66587;SDS011;53446;50.076;8.198;2022-10-31T10:49:16;18.30;;;8.30;;
66587;SDS011;53446;50.076;8.198;2022-10-31T10:51:21;20.38;;;7.95;;
66587;SDS011;53446;50.076;8.198;2022-10-31T10:55:43;15.75;;;7.10;;
66587;SDS011;53446;50.076;8.198;2022-10-31T10:59:50;17.65;;;6.82;;
66587;SDS011;53446;50.076;8.198;2022-10-31T11:01:51;17.65;;;6.80;;
66587;SDS011;53446;50.076;8.198;2022-10-31T11:03:52;17.00;;;7.50;;
66587;SDS011;53446;50.076;8.198;2022-10-31T11:05:53;19.67;;;8.20;;
66587;SDS011;53446;50.076;8.198;2022-10-31T11:07:54;16.05;;;7.28;;
66587;SDS011;53446;50.076;8.198;2022-10-31T11:10:02;15.27;;;6.87;;
66587;SDS011;53446;50.076;8.198;2022-10-31T11:12:16;15.90;;;7.53;;
66587;SDS011;53446;50.076;8.198;2022-10-31T11:14:19;17.93;;;7.10;;
66587;SDS011;53446;50.076;8.198;2022-10-31T11:18:27;16.05;;;7.22;;
66587;SDS011;53446;50.076;8.198;2022-10-31T11:22:35;15.98;;;6.75;;
66587;SDS011;53446;50.076;8.198;2022-10-31T11:24:37;17.70;;;7.95;;
66587;SDS011;53446;50.076;8.198;2022-10-31T11:26:41;17.77;;;8.40;;
66587;SDS011;53446;50.076;8.198;2022-10-31T11:28:42;17.42;;;7.90;;
66587;SDS011;53446;50.076;8.198;2022-10-31T11:30:43;17.37;;;7.40;;
66587;SDS011;53446;50.076;8.198;2022-10-31T11:32:47;19.23;;;8.00;;
66587;SDS011;53446;50.076;8.198;2022-10-31T11:34:54;14.75;;;7.20;;
66587;SDS011;53446;50.076;8.198;2022-10-31T11:37:01;14.95;;;6.53;;
66587;SDS011;53446;50.076;8.198;2022-10-31T11:39:23;15.13;;;7.65;;
66587;SDS011;53446;50.076;8.198;2022-10-31T11:41:25;19.60;;;7.07;;
66587;SDS011;53446;50.076;8.198;2022-10-31T11:43:26;15.82;;;7.32;;
66587;SDS011;53446;50.076;8.198;2022-10-31T11:45:33;18.77;;;7.80;;
66587;SDS011;53446;50.076;8.198;2022-10-31T11:47:36;15.38;;;6.50;;
66587;SDS011;53446;50.076;8.198;2022-10-31T11:49:40;15.70;;;6.43;;
66587;SDS011;53446;50.076;8.198;2022-10-31T11:51:42;16.92;;;7.55;;
66587;SDS011;53446;50.076;8.198;2022-10-31T11:53:49;17.80;;;8.05;;
66587;SDS011;53446;50.076;8.198;2022-10-31T11:58:23;17.08;;;7.00;;
66587;SDS011;53446;50.076;8.198;2022-10-31T12:02:26;18.38;;;7.75;;
66587;SDS011;53446;50.076;8.198;2022-10-31T12:04:43;19.20;;;7.60;;
66587;SDS011;53446;50.076;8.198;2022-10-31T12:06:47;16.98;;;8.15;;
66587;SDS011;53446;50.076;8.198;2022-10-31T12:08:47;15.17;;;7.30;;
66587;SDS011;53446;50.076;8.198;2022-10-31T12:10:54;18.58;;;7.22;;
66587;SDS011;53446;50.076;8.198;2022-10-31T12:13:05;17.17;;;7.63;;
66587;SDS011;53446;50.076;8.198;2022-10-31T12:17:26;14.25;;;6.97;;
66587;SDS011;53446;50.076;8.198;2022-10-31T12:24:22;15.68;;;6.65;;
66587;SDS011;53446;50.076;8.198;2022-10-31T12:26:30;17.83;;;7.22;;
66587;SDS011;53446;50.076;8.198;2022-10-31T12:28:41;16.40;;;7.30;;
66587;SDS011;53446;50.076;8.198;2022-10-31T12:30:51;17.85;;;7.43;;
66587;SDS011;53446;50.076;8.198;2022-10-31T12:37:31;19.55;;;8.10;;
66587;SDS011;53446;50.076;8.198;2022-10-31T12:39:58;17.83;;;7.18;;
66587;SDS011;53446;50.076;8.198;2022-10-31T12:45:13;14.23;;;8.32;;
66587;SDS011;53446;50.076;8.198;2022-10-31T12:49:41;17.77;;;7.18;;
66587;SDS011;53446;50.076;8.198;2022-10-31T12:58:21;17.92;;;7.18;;
66587;SDS011;53446;50.076;8.198;2022-10-31T13:00:24;13.55;;;6.85;;
66587;SDS011;53446;50.076;8.198;2022-10-31T13:02:38;13.73;;;7.22;;
66587;SDS011;53446;50.076;8.198;2022-10-31T13:04:45;14.55;;;6.35;;
66587;SDS011;53446;50.076;8.198;2022-10-31T13:06:51;12.60;;;6.35;;
66587;SDS011;53446;50.076;8.198;2022-10-31T13:08:59;16.40;;;6.60;;
66587;SDS011;53446;50.076;8.198;2022-10-31T13:11:12;13.73;;;6.50;;
66587;SDS011;53446;50.076;8.198;2022-10-31T13:15:22;17.83;;;6.57;;
66587;SDS011;53446;50.076;8.198;2022-10-31T13:17:28;12.48;;;5.68;;
66587;SDS011;53446;50.076;8.198;2022-10-31T13:19:36;15.70;;;5.75;;
66587;SDS011;53446;50.076;8.198;2022-10-31T13:21:59;16.63;;;6.47;;
66587;SDS011;53446;50.076;8.198;2022-10-31T13:24:03;14.20;;;6.50;;
66587;SDS011;53446;50.076;8.198;2022-10-31T13:26:12;14.90;;;6.40;;
66587;SDS011;53446;50.076;8.198;2022-10-31T13:28:21;17.17;;;6.88;;
66587;SDS011;53446;50.076;8.198;2022-10-31T13:30:26;14.73;;;7.25;;
66587;SDS011;53446;50.076;8.198;2022-10-31T13:32:36;19.67;;;7.90;;
66587;SDS011;53446;50.076;8.198;2022-10-31T13:34:40;24.67;;;8.45;;
66587;SDS011;53446;50.076;8.198;2022-10-31T13:36:48;17.75;;;7.45;;
66587;SDS011;53446;50.076;8.198;2022-10-31T13:43:36;16.85;;;7.80;;
66587;SDS011;53446;50.076;8.198;2022-10-31T13:45:53;17.30;;;8.07;;